Terminal Aerodrome Forecast
Issued by NWS

Home | Current Version | Previous Version | Text Only | Print | Product List | Glossary On
Versions: 1 2 3 4 5 6 7 8 9 10 11 12 13 14 15 16
593
FTUS44 KLIX 311720
TAFGPT
TAF
KGPT 311720Z 3118/0118 17007KT P6SM FEW035
      TEMPO 3122/0101 VRB20G35KT 2SM TSRA BKN025CB
     FM011000 00000KT P6SM FEW250=

USA.gov is the U.S. government's official web portal to all federal, state and local government web resources and services.